createdAt,value
2023-04-27T00:00:11.391Z,102200.50
2023-04-27T00:02:40.039Z,102182.03
2023-04-27T00:05:11.714Z,102032.31
2023-04-27T00:07:40.344Z,102181.66
2023-04-27T00:10:10.388Z,102175.53
2023-04-27T00:12:38.861Z,102101.50
2023-04-27T00:15:09.030Z,102036.75
2023-04-27T00:17:37.631Z,102190.56
2023-04-27T00:20:08.881Z,102090.44
2023-04-27T00:22:38.889Z,101998.13
2023-04-27T00:25:08.206Z,102210.03
2023-04-27T00:27:36.618Z,101987.13
2023-04-27T00:30:09.681Z,102080.72
2023-04-27T00:32:38.158Z,102050.88
2023-04-27T00:35:07.642Z,102225.00
2023-04-27T00:37:36.154Z,102087.91
2023-04-27T00:40:09.043Z,102197.84
2023-04-27T00:42:37.635Z,101950.81
2023-04-27T00:45:07.672Z,102173.81
2023-04-27T00:47:36.698Z,102182.72
2023-04-27T00:50:08.617Z,102038.00
2023-04-27T00:52:38.222Z,102099.53
2023-04-27T00:55:09.900Z,102246.19
2023-04-27T00:57:39.099Z,101995.44
2023-04-27T01:00:10.929Z,102230.16
2023-04-27T01:02:40.232Z,102170.47
2023-04-27T01:05:10.065Z,101992.28
2023-04-27T01:07:40.108Z,102179.97
2023-04-27T01:10:11.182Z,102168.09
2023-04-27T01:12:39.617Z,102163.84
2023-04-27T01:15:10.245Z,102075.97
2023-04-27T01:17:41.863Z,102094.19
2023-04-27T01:20:11.542Z,102155.88
2023-04-27T01:22:40.348Z,102124.94
2023-04-27T01:25:10.986Z,102243.69
2023-04-27T01:27:39.398Z,102133.47
2023-04-27T01:30:09.509Z,102193.81
2023-04-27T01:32:39.393Z,102223.78
2023-04-27T01:35:08.862Z,102054.53
2023-04-27T01:37:37.580Z,102230.41
2023-04-27T01:40:07.684Z,101984.09
2023-04-27T01:42:38.332Z,102085.44
2023-04-27T01:45:12.642Z,102235.06
2023-04-27T01:47:41.283Z,102164.00
2023-04-27T01:50:10.777Z,102127.91
2023-04-27T01:52:41.129Z,101960.47
2023-04-27T01:55:10.269Z,102122.25
2023-04-27T01:57:40.641Z,102034.69
2023-04-27T02:00:10.943Z,102131.94
2023-04-27T02:02:57.361Z,102112.31
2023-04-27T02:05:25.961Z,102009.66
2023-04-27T02:07:55.105Z,102225.06
2023-04-27T02:10:24.601Z,102169.97
2023-04-27T02:12:58.453Z,102126.81
2023-04-27T02:15:28.484Z,102200.31
2023-04-27T02:17:57.399Z,102041.72
2023-04-27T02:20:26.105Z,102143.75
2023-04-27T02:22:55.489Z,102207.03
2023-04-27T02:25:27.696Z,102132.94
2023-04-27T02:27:58.154Z,102130.94
2023-04-27T02:30:27.246Z,102097.50
2023-04-27T02:33:00.928Z,102036.53
2023-04-27T02:35:29.526Z,102189.09
2023-04-27T02:38:01.278Z,102096.44
2023-04-27T02:40:29.718Z,102129.66
2023-04-27T02:43:00.735Z,101990.06
2023-04-27T02:45:29.764Z,102130.88
2023-04-27T02:47:59.886Z,102134.34
2023-04-27T02:50:28.625Z,102185.50
2023-04-27T02:52:57.650Z,102201.13
2023-04-27T02:55:26.029Z,102010.09
2023-04-27T02:57:54.390Z,102087.84
2023-04-27T03:00:24.384Z,102133.72
2023-04-27T03:02:52.881Z,102204.06
2023-04-27T03:05:21.766Z,102203.22
2023-04-27T03:07:50.135Z,102097.47
2023-04-27T03:10:18.717Z,102202.81
2023-04-27T03:12:47.088Z,101944.97
2023-04-27T03:15:15.488Z,102180.31
2023-04-27T03:17:46.094Z,102152.66
2023-04-27T03:20:15.246Z,101957.66
2023-04-27T03:22:45.775Z,102170.16
2023-04-27T03:25:14.590Z,101971.34
2023-04-27T03:27:43.595Z,102200.31
2023-04-27T03:30:14.671Z,101991.28
2023-04-27T03:32:46.347Z,102210.28
2023-04-27T03:35:16.218Z,102212.13
2023-04-27T03:37:47.123Z,102210.38
2023-04-27T03:40:16.111Z,102088.44
2023-04-27T03:42:44.416Z,102143.19
2023-04-27T03:45:13.200Z,101942.56
2023-04-27T03:47:41.908Z,102157.91
2023-04-27T03:50:12.258Z,102222.22
2023-04-27T03:52:40.861Z,101974.78
2023-04-27T03:55:10.143Z,102220.59
2023-04-27T03:57:41.629Z,102221.47
2023-04-27T04:00:12.940Z,102226.78
2023-04-27T04:02:41.451Z,102224.16
2023-04-27T04:05:14.886Z,102117.28
2023-04-27T04:07:43.731Z,102069.84
2023-04-27T04:10:13.691Z,102019.75
2023-04-27T04:12:42.877Z,102226.78
2023-04-27T04:15:12.020Z,101971.41
2023-04-27T04:17:40.385Z,102044.00
2023-04-27T04:20:15.429Z,101995.00
2023-04-27T04:22:44.387Z,102234.00
2023-04-27T04:25:13.989Z,102182.41
2023-04-27T04:27:43.556Z,102232.47
2023-04-27T04:30:13.554Z,102239.38
2023-04-27T04:32:42.693Z,102216.25
2023-04-27T04:35:13.087Z,102033.53
2023-04-27T04:37:41.640Z,102169.50
2023-04-27T04:40:11.766Z,102233.06
2023-04-27T04:42:42.302Z,102227.44
2023-04-27T04:45:11.701Z,102205.09
2023-04-27T04:47:40.742Z,102219.59
2023-04-27T04:50:10.695Z,102144.41
2023-04-27T04:52:40.634Z,102198.78
2023-04-27T04:55:10.535Z,102018.53
2023-04-27T04:57:38.933Z,102252.91
2023-04-27T05:00:12.007Z,102067.75
2023-04-27T05:02:41.140Z,102216.16
2023-04-27T05:05:12.757Z,102249.94
2023-04-27T05:07:42.366Z,102223.47
2023-04-27T05:10:10.998Z,102258.97
2023-04-27T05:12:39.464Z,102144.28
2023-04-27T05:15:09.112Z,102257.19
2023-04-27T05:17:37.350Z,102259.53
2023-04-27T05:20:07.917Z,101994.09
2023-04-27T05:22:36.762Z,102032.88
2023-04-27T05:25:07.829Z,102112.25
2023-04-27T05:27:36.319Z,101998.97
2023-04-27T05:30:05.142Z,102160.31
2023-04-27T05:32:37.376Z,102261.84
2023-04-27T05:35:06.582Z,102119.38
2023-04-27T05:37:34.970Z,102082.47
2023-04-27T05:40:05.725Z,102271.47
2023-04-27T05:42:34.427Z,102268.47
2023-04-27T05:45:03.684Z,102270.75
2023-04-27T05:47:32.331Z,102274.53
2023-04-27T05:50:00.791Z,102251.63
2023-04-27T05:52:31.074Z,102150.03
2023-04-27T05:55:01.630Z,102182.28
2023-04-27T05:57:31.788Z,102220.59
2023-04-27T06:00:00.405Z,102046.28
2023-04-27T06:02:32.678Z,102173.09
2023-04-27T06:05:01.114Z,102198.91
2023-04-27T06:07:29.689Z,102114.84
2023-04-27T06:09:58.240Z,102044.16
2023-04-27T06:12:26.576Z,102035.81
2023-04-27T06:14:56.495Z,102046.44
2023-04-27T06:17:25.068Z,102273.94
2023-04-27T06:19:53.559Z,102070.41
2023-04-27T06:22:21.961Z,102105.84
2023-04-27T06:24:50.350Z,102068.63
2023-04-27T06:27:20.726Z,102272.19
2023-04-27T06:29:49.229Z,102280.59
2023-04-27T06:32:24.934Z,102217.72
2023-04-27T06:34:53.575Z,102261.03
2023-04-27T06:37:23.114Z,102077.69
2023-04-27T06:39:51.868Z,102179.44
2023-04-27T06:42:20.225Z,102239.06
2023-04-27T06:44:58.455Z,102273.19
2023-04-27T06:47:28.539Z,102178.69
2023-04-27T06:49:56.847Z,102186.66
2023-04-27T06:52:25.140Z,102267.13
2023-04-27T06:54:53.466Z,102112.41
2023-04-27T06:57:22.412Z,102194.66
2023-04-27T06:59:50.807Z,102079.41
2023-04-27T07:02:24.331Z,102194.22
2023-04-27T07:04:57.369Z,102255.47
2023-04-27T07:07:25.914Z,102198.03
2023-04-27T07:09:54.381Z,102202.81
2023-04-27T07:12:22.775Z,102217.28
2023-04-27T07:14:51.715Z,102197.94
2023-04-27T07:17:20.248Z,102243.56
2023-04-27T07:19:49.017Z,102265.78
2023-04-27T07:22:20.032Z,102258.91
2023-04-27T07:24:48.553Z,102210.72
2023-04-27T07:27:19.492Z,102270.47
2023-04-27T07:29:50.333Z,102197.13
2023-04-27T07:32:18.938Z,102235.44
2023-04-27T07:34:53.301Z,102061.00
2023-04-27T07:37:24.284Z,102238.50
2023-04-27T07:39:53.196Z,102028.16
2023-04-27T07:42:23.664Z,102112.88
2023-04-27T07:44:52.433Z,102079.97
2023-04-27T07:47:21.942Z,102063.16
2023-04-27T07:49:50.497Z,102201.72
2023-04-27T07:52:18.918Z,102121.94
2023-04-27T07:54:48.894Z,102194.88
2023-04-27T07:57:17.240Z,102252.16
2023-04-27T07:59:45.890Z,102133.16
2023-04-27T08:02:20.453Z,102251.66
2023-04-27T08:04:49.804Z,102154.66
2023-04-27T08:07:19.739Z,102201.69
2023-04-27T08:09:53.424Z,102062.25
2023-04-27T08:12:21.819Z,102180.59
2023-04-27T08:14:50.701Z,102244.47
2023-04-27T08:17:19.490Z,102245.09
2023-04-27T08:19:48.025Z,102125.25
2023-04-27T08:22:16.605Z,102119.88
2023-04-27T08:24:45.166Z,102067.00
2023-04-27T08:27:15.693Z,102048.53
2023-04-27T08:29:48.285Z,102226.41
2023-04-27T08:32:17.563Z,102033.00
2023-04-27T08:34:46.552Z,102209.59
2023-04-27T08:37:14.954Z,102188.75
2023-04-27T08:39:43.526Z,102183.53
2023-04-27T08:42:14.374Z,102241.25
2023-04-27T08:44:45.338Z,102100.06
2023-04-27T08:47:16.812Z,102033.34
2023-04-27T08:49:45.436Z,102233.88
2023-04-27T08:52:16.400Z,102121.44
2023-04-27T08:54:45.314Z,102237.41
2023-04-27T08:57:16.408Z,102182.97
2023-04-27T08:59:45.452Z,102230.81
2023-04-27T09:02:21.222Z,102028.16
2023-04-27T09:04:51.072Z,102144.06
2023-04-27T09:07:20.717Z,102146.59
2023-04-27T09:09:49.718Z,102156.53
2023-04-27T09:12:22.015Z,102125.13
2023-04-27T09:15:00.424Z,102128.56
2023-04-27T09:17:30.451Z,102158.72
2023-04-27T09:20:09.120Z,102053.44
2023-04-27T09:22:49.662Z,102189.41
2023-04-27T09:25:26.426Z,102163.84
2023-04-27T09:27:58.272Z,102219.19
2023-04-27T09:30:27.802Z,102185.66
2023-04-27T09:32:57.952Z,102173.38
2023-04-27T09:35:29.319Z,102162.50
2023-04-27T09:37:58.312Z,102197.78
2023-04-27T09:40:31.914Z,102135.34
2023-04-27T09:43:02.584Z,102159.38
2023-04-27T09:45:34.716Z,102125.31
2023-04-27T09:48:03.656Z,102198.66
2023-04-27T09:50:37.905Z,102142.16
2023-04-27T09:53:10.712Z,102179.63
2023-04-27T09:55:43.336Z,102037.78
2023-04-27T09:58:51.452Z,102152.16
2023-04-27T10:01:28.297Z,102130.28
2023-04-27T10:04:14.617Z,102046.69
2023-04-27T10:07:02.113Z,102174.69
2023-04-27T10:09:43.903Z,102175.22
2023-04-27T10:12:18.599Z,102164.94
2023-04-27T10:14:53.687Z,102138.34
2023-04-27T10:17:27.877Z,102050.88
2023-04-27T10:20:02.252Z,102163.44
2023-04-27T10:22:41.430Z,102169.44
2023-04-27T10:25:19.954Z,102122.34
2023-04-27T10:27:53.498Z,102152.63
2023-04-27T10:30:26.009Z,102168.41
2023-04-27T10:32:56.750Z,102125.91
2023-04-27T10:35:35.230Z,102111.59
2023-04-27T10:38:12.473Z,102028.97
2023-04-27T10:40:40.956Z,102135.22
2023-04-27T10:43:14.305Z,102013.66
2023-04-27T10:45:46.015Z,102063.53
2023-04-27T10:48:18.072Z,101994.06
2023-04-27T10:50:47.058Z,102108.59
2023-04-27T10:53:16.583Z,102168.25
2023-04-27T10:55:45.065Z,102006.22
2023-04-27T10:58:13.617Z,102024.03
2023-04-27T11:00:45.003Z,102159.53
2023-04-27T11:03:18.210Z,102117.38
2023-04-27T11:05:49.265Z,102072.81
2023-04-27T11:08:21.002Z,102113.78
2023-04-27T11:10:51.434Z,102132.09
2023-04-27T11:13:22.254Z,102071.19
2023-04-27T11:15:54.795Z,102031.31
2023-04-27T11:18:26.075Z,102103.31
2023-04-27T11:21:06.752Z,102031.81
2023-04-27T11:23:38.003Z,102104.84
2023-04-27T11:26:12.076Z,102147.06
2023-04-27T11:28:40.583Z,102019.06
2023-04-27T11:31:11.661Z,102097.19
2023-04-27T11:33:41.058Z,102134.56
2023-04-27T11:36:18.520Z,102027.72
2023-04-27T11:38:50.438Z,102074.28
2023-04-27T11:41:19.549Z,102121.50
2023-04-27T11:43:49.595Z,102094.16
2023-04-27T11:46:23.267Z,102099.47
2023-04-27T11:48:51.929Z,102048.72
2023-04-27T11:51:20.513Z,102021.88
2023-04-27T11:53:51.296Z,102110.28
2023-04-27T11:56:19.697Z,102134.53
2023-04-27T11:58:48.437Z,101976.34
2023-04-27T12:01:24.801Z,101980.16
2023-04-27T12:04:05.445Z,102114.41
2023-04-27T12:06:34.392Z,101974.50
2023-04-27T12:09:07.287Z,102044.53
2023-04-27T12:11:35.839Z,102105.75
2023-04-27T12:14:04.997Z,102089.09
2023-04-27T12:16:37.629Z,102066.97
2023-04-27T12:19:08.202Z,101982.75
2023-04-27T12:21:36.545Z,101926.19
2023-04-27T12:24:05.770Z,102095.72
2023-04-27T12:26:34.005Z,102094.31
2023-04-27T12:29:04.372Z,102063.88
2023-04-27T12:31:32.919Z,102036.38
2023-04-27T12:34:01.493Z,102102.06
2023-04-27T12:36:31.932Z,101994.03
2023-04-27T12:39:13.801Z,102014.66
2023-04-27T12:41:42.376Z,102023.34
2023-04-27T12:44:11.226Z,102090.28
2023-04-27T12:46:39.787Z,101945.94
2023-04-27T12:49:08.754Z,102053.81
2023-04-27T12:51:38.727Z,101943.22
2023-04-27T12:54:10.970Z,102034.50
2023-04-27T12:56:39.578Z,101929.56
2023-04-27T12:59:07.961Z,101898.63
2023-04-27T13:01:39.364Z,102058.75
2023-04-27T13:04:09.275Z,102061.00
2023-04-27T13:06:39.338Z,101928.41
2023-04-27T13:09:07.856Z,101931.13
2023-04-27T13:11:36.276Z,101962.69
2023-04-27T13:14:07.432Z,102058.44
2023-04-27T13:16:37.075Z,102057.66
2023-04-27T13:19:05.658Z,102020.94
2023-04-27T13:21:34.334Z,102058.09
2023-04-27T13:24:08.538Z,102049.19
2023-04-27T13:26:36.881Z,101987.28
2023-04-27T13:29:05.473Z,101938.72
2023-04-27T13:31:34.263Z,101969.38
2023-04-27T13:34:07.074Z,101882.66
2023-04-27T13:36:38.212Z,101905.25
2023-04-27T13:39:08.973Z,101994.78
2023-04-27T13:41:37.436Z,102032.78
2023-04-27T13:44:05.854Z,101872.94
2023-04-27T13:46:35.301Z,101942.28
2023-04-27T13:49:03.770Z,102022.25
2023-04-27T13:51:40.414Z,102008.63
2023-04-27T13:54:10.331Z,101991.66
2023-04-27T13:56:38.812Z,102008.28
2023-04-27T13:59:09.430Z,101955.28
2023-04-27T14:01:40.250Z,101873.75
2023-04-27T14:04:11.009Z,101908.09
2023-04-27T14:06:39.553Z,101976.81
2023-04-27T14:09:09.779Z,101936.44
2023-04-27T14:11:52.336Z,101837.53
2023-04-27T14:14:24.633Z,101821.34
2023-04-27T14:16:53.918Z,101959.16
2023-04-27T14:19:22.307Z,101906.03
2023-04-27T14:21:51.313Z,101862.91
2023-04-27T14:24:21.161Z,101949.50
2023-04-27T14:26:51.222Z,101794.31
2023-04-27T14:29:19.843Z,101914.00
2023-04-27T14:31:48.618Z,101886.66
2023-04-27T14:34:18.442Z,101799.66
2023-04-27T14:36:48.026Z,101848.16
2023-04-27T14:39:17.016Z,101969.00
2023-04-27T14:41:46.781Z,101964.84
2023-04-27T14:44:18.234Z,101899.41
2023-04-27T14:46:46.752Z,101969.63
2023-04-27T14:49:15.397Z,101919.22
2023-04-27T14:51:47.019Z,101787.66
2023-04-27T14:54:17.882Z,101872.66
2023-04-27T14:56:47.648Z,101779.09
2023-04-27T14:59:22.238Z,101746.47
2023-04-27T15:01:50.833Z,101868.22
2023-04-27T15:04:19.285Z,101752.25
2023-04-27T15:06:51.060Z,101939.53
2023-04-27T15:09:19.569Z,101738.53
2023-04-27T15:11:52.596Z,101936.28
2023-04-27T15:14:21.241Z,101896.59
2023-04-27T15:16:50.655Z,101839.94
2023-04-27T15:19:19.211Z,101850.41
2023-04-27T15:21:48.618Z,101951.22
2023-04-27T15:24:19.686Z,101890.25
2023-04-27T15:26:49.459Z,101757.91
2023-04-27T15:29:20.257Z,101862.03
2023-04-27T15:31:49.013Z,101928.06
2023-04-27T15:34:17.311Z,101926.41
2023-04-27T15:36:45.696Z,101800.81
2023-04-27T15:39:14.293Z,101897.53
2023-04-27T15:41:45.765Z,101815.16
2023-04-27T15:44:15.503Z,101859.50
2023-04-27T15:46:47.063Z,101881.03
2023-04-27T15:49:17.815Z,101810.56
2023-04-27T15:51:49.205Z,101892.97
2023-04-27T15:54:19.277Z,101754.13
2023-04-27T15:56:50.113Z,101761.41
2023-04-27T15:59:21.963Z,101869.66
2023-04-27T16:01:52.941Z,101688.31
2023-04-27T16:04:24.283Z,101848.78
2023-04-27T16:06:55.267Z,101875.03
2023-04-27T16:09:26.575Z,101698.97
2023-04-27T16:11:57.330Z,101840.63
2023-04-27T16:14:26.999Z,101669.84
2023-04-27T16:17:00.560Z,101849.44
2023-04-27T16:19:29.221Z,101740.19
2023-04-27T16:21:57.737Z,101691.66
2023-04-27T16:24:29.391Z,101788.41
2023-04-27T16:26:57.912Z,101778.13
2023-04-27T16:29:27.455Z,101726.81
2023-04-27T16:31:55.868Z,101664.34
2023-04-27T16:34:26.525Z,101836.13
2023-04-27T16:36:56.850Z,101712.81
2023-04-27T16:39:27.645Z,101778.59
2023-04-27T16:41:55.938Z,101754.88
2023-04-27T16:44:24.547Z,101788.59
2023-04-27T16:48:00.998Z,101817.06
2023-04-27T16:49:47.669Z,101743.25
2023-04-27T16:52:17.170Z,101686.41
2023-04-27T16:54:48.684Z,101648.03
2023-04-27T16:57:17.466Z,101649.91
2023-04-27T16:59:45.891Z,101814.13
2023-04-27T17:02:25.202Z,101812.69
2023-04-27T17:04:55.980Z,101710.47
2023-04-27T17:07:28.742Z,101707.28
2023-04-27T17:09:57.249Z,101712.84
2023-04-27T17:12:28.603Z,101796.03
2023-04-27T17:15:00.908Z,101797.53
2023-04-27T17:17:35.127Z,101735.72
2023-04-27T17:20:10.351Z,101605.06
2023-04-27T17:22:40.200Z,101749.00
2023-04-27T17:25:09.770Z,101622.97
2023-04-27T17:27:38.660Z,101765.09
2023-04-27T17:30:09.615Z,101669.16
2023-04-27T17:32:48.804Z,101785.06
2023-04-27T17:35:20.572Z,101762.03
2023-04-27T17:38:01.261Z,101651.34
2023-04-27T17:40:34.985Z,101666.88
2023-04-27T17:43:03.422Z,101778.59
2023-04-27T17:45:32.148Z,101799.38
2023-04-27T17:48:02.097Z,101800.56
2023-04-27T17:50:34.631Z,101768.06
2023-04-27T17:53:03.266Z,101796.47
2023-04-27T17:55:31.708Z,101765.44
2023-04-27T17:58:00.326Z,101613.53
2023-04-27T18:00:28.678Z,101798.38
2023-04-27T18:02:57.424Z,101786.78
2023-04-27T18:05:27.971Z,101713.91
2023-04-27T18:07:56.366Z,101587.69
2023-04-27T18:10:24.939Z,101586.34
2023-04-27T18:12:53.460Z,101792.94
2023-04-27T18:15:21.931Z,101768.34
2023-04-27T18:17:50.357Z,101794.22
2023-04-27T18:20:19.212Z,101794.69
2023-04-27T18:22:49.316Z,101684.78
2023-04-27T18:25:17.836Z,101724.09
2023-04-27T18:27:48.651Z,101766.13
2023-04-27T18:30:20.217Z,101780.06
2023-04-27T18:32:48.948Z,101714.88
2023-04-27T18:35:17.576Z,101687.03
2023-04-27T18:37:48.336Z,101563.50
2023-04-27T18:40:21.440Z,101521.34
2023-04-27T18:42:51.671Z,101552.50
2023-04-27T18:45:20.345Z,101640.03
2023-04-27T18:47:51.903Z,101572.97
2023-04-27T18:50:21.005Z,101693.72
2023-04-27T18:52:52.232Z,101716.28
2023-04-27T18:55:22.760Z,101779.19
2023-04-27T18:57:51.320Z,101637.34
2023-04-27T19:00:20.233Z,101663.03
2023-04-27T19:02:52.312Z,101569.09
2023-04-27T19:05:21.245Z,101642.13
2023-04-27T19:07:49.696Z,101707.88
2023-04-27T19:10:18.173Z,101574.03
2023-04-27T19:12:48.176Z,101758.16
2023-04-27T19:15:16.889Z,101680.72
2023-04-27T19:17:47.183Z,101716.25
2023-04-27T19:20:17.503Z,101756.44
2023-04-27T19:22:48.022Z,101601.66
2023-04-27T19:25:16.816Z,101557.50
2023-04-27T19:27:45.608Z,101672.03
2023-04-27T19:30:16.403Z,101618.97
2023-04-27T19:32:47.984Z,101698.50
2023-04-27T19:35:16.707Z,101768.56
2023-04-27T19:37:45.105Z,101630.22
2023-04-27T19:40:16.517Z,101750.47
2023-04-27T19:42:45.216Z,101673.81
2023-04-27T19:45:18.624Z,101745.88
2023-04-27T19:47:48.642Z,101570.22
2023-04-27T19:50:18.687Z,101574.84
2023-04-27T19:52:47.095Z,101744.81
2023-04-27T19:55:15.638Z,101682.69
2023-04-27T19:57:44.683Z,101576.84
2023-04-27T20:00:21.192Z,101632.59
2023-04-27T20:02:58.899Z,101772.41
2023-04-27T20:05:29.158Z,101748.78
2023-04-27T20:07:57.890Z,101752.00
2023-04-27T20:10:26.224Z,101630.75
2023-04-27T20:12:57.505Z,101640.84
2023-04-27T20:15:29.430Z,101548.63
2023-04-27T20:18:01.666Z,101744.13
2023-04-27T20:20:30.109Z,101700.97
2023-04-27T20:22:58.575Z,101589.75
2023-04-27T20:25:27.239Z,101462.59
2023-04-27T20:27:55.596Z,101632.69
2023-04-27T20:30:24.088Z,101603.38
2023-04-27T20:32:55.247Z,101712.22
2023-04-27T20:35:24.291Z,101657.44
2023-04-27T20:37:53.980Z,101703.91
2023-04-27T20:40:22.376Z,101510.56
2023-04-27T20:42:51.806Z,101529.81
2023-04-27T20:45:23.121Z,101644.81
2023-04-27T20:47:53.307Z,101589.59
2023-04-27T20:50:23.138Z,101615.31
2023-04-27T20:52:52.257Z,101495.69
2023-04-27T20:55:20.677Z,101561.81
2023-04-27T20:57:50.206Z,101471.59
2023-04-27T21:00:24.276Z,101556.63
2023-04-27T21:02:54.344Z,101639.47
2023-04-27T21:05:23.650Z,101554.22
2023-04-27T21:07:52.344Z,101517.59
2023-04-27T21:10:20.595Z,101584.97
2023-04-27T21:12:48.985Z,101643.25
2023-04-27T21:15:17.469Z,101472.00
2023-04-27T21:17:46.099Z,101532.47
2023-04-27T21:20:17.708Z,101641.28
2023-04-27T21:22:46.408Z,101633.25
2023-04-27T21:25:14.792Z,101497.38
2023-04-27T21:27:45.982Z,101424.41
2023-04-27T21:30:18.242Z,101593.38
2023-04-27T21:32:46.672Z,101625.69
2023-04-27T21:35:16.625Z,101623.44
2023-04-27T21:37:44.992Z,101563.06
2023-04-27T21:40:14.301Z,101611.63
2023-04-27T21:42:42.694Z,101428.63
2023-04-27T21:45:14.491Z,101377.97
2023-04-27T21:47:42.887Z,101441.84
2023-04-27T21:50:17.343Z,101602.34
2023-04-27T21:52:45.959Z,101601.22
2023-04-27T21:55:14.538Z,101481.38
2023-04-27T21:57:42.801Z,101564.75
2023-04-27T22:00:14.662Z,101607.13
2023-04-27T22:02:49.812Z,101476.63
2023-04-27T22:05:21.100Z,101580.59
2023-04-27T22:07:51.616Z,101592.81
2023-04-27T22:10:20.115Z,101371.94
2023-04-27T22:12:48.523Z,101389.75
2023-04-27T22:15:16.933Z,101578.66
2023-04-27T22:17:45.596Z,101447.41
2023-04-27T22:20:14.609Z,101347.28
2023-04-27T22:22:47.814Z,101563.22
2023-04-27T22:25:16.181Z,101524.78
2023-04-27T22:27:46.849Z,101449.97
2023-04-27T22:30:18.298Z,101533.59
2023-04-27T22:32:46.747Z,101400.56
2023-04-27T22:35:26.473Z,101408.03
2023-04-27T22:38:01.521Z,101445.75
2023-04-27T22:40:30.034Z,101313.91
2023-04-27T22:42:58.543Z,101393.28
2023-04-27T22:45:26.906Z,101469.44
2023-04-27T22:47:55.391Z,101534.56
2023-04-27T22:50:25.572Z,101532.72
2023-04-27T22:52:53.948Z,101518.31
2023-04-27T22:55:26.121Z,101369.84
2023-04-27T22:57:54.375Z,101444.38
2023-04-27T23:00:22.946Z,101388.66
2023-04-27T23:02:56.673Z,101337.44
2023-04-27T23:05:25.450Z,101406.03
2023-04-27T23:07:53.747Z,101348.25
2023-04-27T23:10:23.715Z,101510.44
2023-04-27T23:12:54.952Z,101529.66
2023-04-27T23:15:24.224Z,101454.72
2023-04-27T23:17:58.318Z,101454.47
2023-04-27T23:20:28.726Z,101492.47
2023-04-27T23:22:57.665Z,101456.56
2023-04-27T23:25:28.933Z,101265.97
2023-04-27T23:27:57.167Z,101353.16
2023-04-27T23:30:26.098Z,101496.25
2023-04-27T23:32:56.528Z,101475.50
2023-04-27T23:35:25.021Z,101326.53
2023-04-27T23:37:53.421Z,101456.00
2023-04-27T23:40:21.814Z,101500.63
2023-04-27T23:42:52.626Z,101490.66
2023-04-27T23:45:21.279Z,101492.47
2023-04-27T23:47:49.780Z,101424.84
2023-04-27T23:50:18.444Z,101255.47
2023-04-27T23:52:46.692Z,101279.09
2023-04-27T23:55:15.093Z,101289.09
2023-04-27T23:57:44.477Z,101480.56
